createdAt,value
2023-05-01T00:01:00.297Z,0.37
2023-05-01T00:03:28.411Z,0.50
2023-05-01T00:06:03.261Z,0.47
2023-05-01T00:08:30.687Z,0.30
2023-05-01T00:10:58.279Z,0.53
2023-05-01T00:13:26.645Z,0.40
2023-05-01T00:15:56.147Z,0.23
2023-05-01T00:18:23.824Z,0.20
2023-05-01T00:20:53.883Z,0.20
2023-05-01T00:23:21.083Z,0.20
2023-05-01T00:25:49.244Z,0.10
2023-05-01T00:28:16.606Z,0.10
2023-05-01T00:30:45.571Z,0.30
2023-05-01T00:33:12.910Z,0.20
2023-05-01T00:35:40.267Z,0.30
2023-05-01T00:38:07.646Z,0.27
2023-05-01T00:40:42.681Z,0.10
2023-05-01T00:43:10.023Z,0.20
2023-05-01T00:45:37.389Z,0.23
2023-05-01T00:48:05.973Z,0.37
2023-05-01T00:50:33.498Z,0.30
2023-05-01T00:53:01.103Z,0.33
2023-05-01T00:55:28.607Z,0.17
2023-05-01T00:57:56.326Z,0.40
2023-05-01T01:00:24.978Z,0.33
2023-05-01T01:02:52.389Z,0.20
2023-05-01T01:05:22.382Z,0.30
2023-05-01T01:07:58.808Z,0.20
2023-05-01T01:10:37.966Z,0.20
2023-05-01T01:13:09.245Z,0.40
2023-05-01T01:15:40.364Z,0.20
2023-05-01T01:18:13.299Z,0.10
2023-05-01T01:20:41.164Z,0.20
2023-05-01T01:23:25.561Z,0.30
2023-05-01T01:25:53.775Z,0.20
2023-05-01T01:28:24.001Z,0.20
2023-05-01T01:30:51.306Z,0.30
2023-05-01T01:33:34.298Z,0.40
2023-05-01T01:36:07.487Z,0.50
2023-05-01T01:38:41.601Z,0.30
2023-05-01T01:41:18.689Z,0.50
2023-05-01T01:43:47.509Z,0.43
2023-05-01T01:46:17.894Z,0.40
2023-05-01T01:48:47.420Z,0.30
2023-05-01T01:51:17.682Z,0.27
2023-05-01T01:53:46.816Z,0.50
2023-05-01T01:56:15.743Z,0.27
2023-05-01T01:58:43.725Z,0.20
2023-05-01T02:01:11.337Z,0.20
2023-05-01T02:03:39.631Z,0.10
2023-05-01T02:06:08.433Z,0.20
2023-05-01T02:08:36.933Z,0.20
2023-05-01T02:11:04.599Z,0.30
2023-05-01T02:13:32.451Z,0.20
2023-05-01T02:16:00.729Z,0.17
2023-05-01T02:18:29.660Z,0.20
2023-05-01T02:21:00.644Z,0.20
2023-05-01T02:23:28.856Z,0.20
2023-05-01T02:25:57.330Z,0.27
2023-05-01T02:28:25.613Z,0.30
2023-05-01T02:30:53.002Z,0.30
2023-05-01T02:33:20.499Z,0.40
2023-05-01T02:35:48.430Z,0.30
2023-05-01T02:38:17.023Z,0.40
2023-05-01T02:40:57.003Z,0.20
2023-05-01T02:43:25.563Z,0.10
2023-05-01T02:45:54.353Z,0.37
2023-05-01T02:48:24.380Z,0.20
2023-05-01T02:50:52.611Z,0.20
2023-05-01T02:53:20.382Z,0.10
2023-05-01T02:55:48.252Z,0.27
2023-05-01T02:58:16.377Z,0.60
2023-05-01T03:00:44.924Z,0.20
2023-05-01T03:03:12.799Z,0.20
2023-05-01T03:05:41.924Z,0.10
2023-05-01T03:08:10.170Z,0.20
2023-05-01T03:10:37.526Z,0.10
2023-05-01T03:13:04.823Z,0.33
2023-05-01T03:15:32.275Z,0.20
2023-05-01T03:17:59.774Z,0.40
2023-05-01T03:20:27.660Z,0.20
2023-05-01T03:22:55.012Z,0.17
2023-05-01T03:25:22.405Z,0.10
2023-05-01T03:27:50.198Z,0.10
2023-05-01T03:30:17.595Z,0.20
2023-05-01T03:32:44.990Z,0.20
2023-05-01T03:35:12.532Z,0.30
2023-05-01T03:37:39.856Z,0.37
2023-05-01T03:40:09.673Z,0.10
2023-05-01T03:42:36.984Z,0.20
2023-05-01T03:45:04.445Z,0.20
2023-05-01T03:47:31.769Z,0.50
2023-05-01T03:49:59.154Z,0.20
2023-05-01T03:52:26.773Z,0.10
2023-05-01T03:54:54.139Z,0.10
2023-05-01T03:57:23.368Z,0.10
2023-05-01T03:59:50.973Z,0.10
2023-05-01T04:02:18.654Z,0.20
2023-05-01T04:04:46.128Z,0.27
2023-05-01T04:07:14.331Z,0.20
2023-05-01T04:09:41.733Z,0.20
2023-05-01T04:12:09.070Z,0.10
2023-05-01T04:14:36.537Z,0.20
2023-05-01T04:17:03.873Z,0.30
2023-05-01T04:19:31.252Z,0.20
2023-05-01T04:21:58.709Z,0.30
2023-05-01T04:24:26.051Z,0.10
2023-05-01T04:26:53.367Z,0.30
2023-05-01T04:29:21.131Z,0.30
2023-05-01T04:31:48.578Z,0.17
2023-05-01T04:34:16.448Z,0.20
2023-05-01T04:36:43.805Z,0.30
2023-05-01T04:39:11.127Z,0.50
2023-05-01T04:41:38.458Z,0.40
2023-05-01T04:44:06.062Z,0.40
2023-05-01T04:46:33.678Z,0.60
2023-05-01T04:49:03.921Z,0.20
2023-05-01T04:51:31.320Z,0.30
2023-05-01T04:53:58.629Z,0.30
2023-05-01T04:56:26.452Z,0.23
2023-05-01T04:58:53.872Z,0.30
2023-05-01T05:01:21.338Z,0.30
2023-05-01T05:03:50.217Z,0.30
2023-05-01T05:06:17.934Z,0.40
2023-05-01T05:08:45.580Z,0.33
2023-05-01T05:11:12.936Z,0.40
2023-05-01T05:13:40.555Z,0.50
2023-05-01T05:16:08.049Z,0.40
2023-05-01T05:18:35.651Z,0.33
2023-05-01T05:21:10.700Z,0.50
2023-05-01T05:23:38.130Z,0.50
2023-05-01T05:26:05.770Z,0.50
2023-05-01T05:28:33.166Z,0.57
2023-05-01T05:31:00.624Z,0.60
2023-05-01T05:33:29.255Z,0.53
2023-05-01T05:35:56.691Z,0.53
2023-05-01T05:38:24.088Z,0.40
2023-05-01T05:40:51.445Z,0.47
2023-05-01T05:43:18.845Z,0.33
2023-05-01T05:45:46.434Z,0.23
2023-05-01T05:48:14.493Z,0.20
2023-05-01T05:50:41.851Z,0.40
2023-05-01T05:53:10.117Z,0.30
2023-05-01T05:55:37.440Z,0.40
2023-05-01T05:58:04.769Z,0.40
2023-05-01T06:00:32.206Z,0.30
2023-05-01T06:02:59.597Z,0.30
2023-05-01T06:05:27.125Z,0.87
2023-05-01T06:07:55.303Z,0.50
2023-05-01T06:10:22.962Z,0.30
2023-05-01T06:12:51.028Z,0.30
2023-05-01T06:15:38.363Z,0.40
2023-05-01T06:18:06.113Z,0.40
2023-05-01T06:20:33.664Z,0.23
2023-05-01T06:23:01.086Z,0.40
2023-05-01T06:25:28.703Z,0.30
2023-05-01T06:27:56.292Z,0.30
2023-05-01T06:30:23.700Z,0.33
2023-05-01T06:32:51.239Z,0.50
2023-05-01T06:35:18.921Z,0.97
2023-05-01T06:37:46.378Z,0.70
2023-05-01T06:40:13.765Z,0.60
2023-05-01T06:42:42.287Z,0.47
2023-05-01T06:45:10.052Z,0.40
2023-05-01T06:47:37.368Z,0.40
2023-05-01T06:50:05.727Z,0.40
2023-05-01T06:52:33.446Z,0.30
2023-05-01T06:55:01.143Z,0.33
2023-05-01T06:57:28.614Z,0.50
2023-05-01T06:59:56.210Z,0.43
2023-05-01T07:02:23.759Z,0.30
2023-05-01T07:04:51.317Z,0.47
2023-05-01T07:07:18.646Z,0.60
2023-05-01T07:09:46.082Z,0.60
2023-05-01T07:12:13.493Z,0.60
2023-05-01T07:14:41.806Z,0.70
2023-05-01T07:17:09.374Z,0.67
2023-05-01T07:19:36.789Z,0.50
2023-05-01T07:22:04.968Z,0.60
2023-05-01T07:24:32.365Z,0.70
2023-05-01T07:27:00.201Z,0.87
2023-05-01T07:29:27.618Z,0.70
2023-05-01T07:31:55.124Z,0.60
2023-05-01T07:34:22.570Z,0.70
2023-05-01T07:36:49.943Z,0.60
2023-05-01T07:39:17.983Z,0.90
2023-05-01T07:41:45.837Z,0.50
2023-05-01T07:44:13.208Z,0.70
2023-05-01T07:46:40.849Z,0.50
2023-05-01T07:49:08.166Z,0.73
2023-05-01T07:51:36.028Z,0.50
2023-05-01T07:54:04.874Z,0.50
2023-05-01T07:56:32.450Z,0.50
2023-05-01T07:58:59.894Z,0.40
2023-05-01T08:01:27.322Z,0.30
2023-05-01T08:03:54.752Z,0.40
2023-05-01T08:06:22.308Z,0.47
2023-05-01T08:08:49.808Z,0.40
2023-05-01T08:11:17.134Z,0.30
2023-05-01T08:13:44.622Z,0.33
2023-05-01T08:16:12.043Z,0.40
2023-05-01T08:18:39.506Z,0.30
2023-05-01T08:21:09.806Z,0.20
2023-05-01T08:23:37.374Z,0.30
2023-05-01T08:26:04.766Z,0.43
2023-05-01T08:28:33.817Z,0.30
2023-05-01T08:31:01.105Z,0.43
2023-05-01T08:33:28.758Z,0.30
2023-05-01T08:35:56.183Z,0.30
2023-05-01T08:38:23.654Z,0.23
2023-05-01T08:40:56.862Z,0.30
2023-05-01T08:43:24.532Z,0.20
2023-05-01T08:45:52.047Z,0.43
2023-05-01T08:48:19.805Z,0.40
2023-05-01T08:50:48.347Z,0.17
2023-05-01T08:53:19.604Z,0.40
2023-05-01T08:55:47.981Z,0.20
2023-05-01T08:58:15.642Z,0.10
2023-05-01T09:00:43.688Z,0.27
2023-05-01T09:03:13.984Z,0.20
2023-05-01T09:05:41.561Z,0.20
2023-05-01T09:08:08.950Z,0.10
2023-05-01T09:10:40.363Z,0.10
2023-05-01T09:13:10.757Z,0.10
2023-05-01T09:15:38.358Z,0.10
2023-05-01T09:18:05.985Z,0.10
2023-05-01T09:20:33.806Z,0.10
2023-05-01T09:23:01.245Z,0.10
2023-05-01T09:25:28.937Z,0.10
2023-05-01T09:27:57.449Z,0.10
2023-05-01T09:30:33.699Z,0.20
2023-05-01T09:33:14.582Z,0.10
2023-05-01T09:35:52.078Z,0.10
2023-05-01T09:38:23.874Z,0.10
2023-05-01T09:40:52.197Z,0.10
2023-05-01T09:43:29.752Z,0.10
2023-05-01T09:46:01.126Z,0.10
2023-05-01T09:48:29.338Z,0.10
2023-05-01T09:50:56.798Z,0.10
2023-05-01T09:53:40.092Z,0.10
2023-05-01T09:56:07.690Z,0.10
2023-05-01T09:58:34.992Z,0.17
2023-05-01T10:01:02.362Z,0.20
2023-05-01T10:03:30.375Z,0.10
2023-05-01T10:06:00.935Z,0.10
2023-05-01T10:08:33.169Z,0.20
2023-05-01T10:11:01.258Z,0.10
2023-05-01T10:13:29.124Z,0.10
2023-05-01T10:15:56.696Z,0.10
2023-05-01T10:18:24.772Z,0.00
2023-05-01T10:20:52.730Z,0.00
2023-05-01T10:23:20.226Z,0.10
2023-05-01T10:25:48.685Z,0.17
2023-05-01T10:28:16.248Z,0.10
2023-05-01T10:30:44.314Z,0.10
2023-05-01T10:33:14.177Z,0.10
2023-05-01T10:35:43.322Z,0.10
2023-05-01T10:38:12.365Z,0.07
2023-05-01T10:40:39.808Z,0.10
2023-05-01T10:43:17.032Z,0.17
2023-05-01T10:45:45.326Z,0.10
2023-05-01T10:48:13.057Z,0.10
2023-05-01T10:50:59.282Z,0.10
2023-05-01T10:53:26.653Z,0.00
2023-05-01T10:55:54.119Z,0.20
2023-05-01T10:58:39.758Z,0.03
2023-05-01T11:01:33.598Z,0.20
2023-05-01T11:04:04.225Z,0.10
2023-05-01T11:06:32.406Z,0.00
2023-05-01T11:09:00.356Z,0.20
2023-05-01T11:11:27.685Z,0.00
2023-05-01T11:14:01.680Z,0.17
2023-05-01T11:16:38.424Z,0.20
2023-05-01T11:19:06.888Z,0.20
2023-05-01T11:21:35.411Z,0.10
2023-05-01T11:24:04.372Z,0.10
2023-05-01T11:26:32.664Z,0.13
2023-05-01T11:29:01.725Z,0.10
2023-05-01T11:31:29.587Z,0.20
2023-05-01T11:33:57.523Z,0.10
2023-05-01T11:36:24.932Z,0.10
2023-05-01T11:38:59.861Z,0.17
2023-05-01T11:41:28.056Z,0.10
2023-05-01T11:43:56.420Z,0.10
2023-05-01T11:46:30.721Z,0.20
2023-05-01T11:48:58.848Z,0.10
2023-05-01T11:51:26.926Z,0.30
2023-05-01T11:54:11.090Z,0.20
2023-05-01T11:56:41.249Z,0.50
2023-05-01T11:59:12.220Z,0.30
2023-05-01T12:01:41.208Z,0.20
2023-05-01T12:04:09.140Z,0.40
2023-05-01T12:06:43.866Z,0.30
2023-05-01T12:09:17.645Z,0.20
2023-05-01T12:11:46.324Z,0.30
2023-05-01T12:14:15.405Z,0.30
2023-05-01T12:16:43.530Z,0.40
2023-05-01T12:19:13.403Z,0.40
2023-05-01T12:21:41.171Z,0.53
2023-05-01T12:24:12.564Z,0.60
2023-05-01T12:26:40.771Z,0.50
2023-05-01T12:29:14.739Z,0.50
2023-05-01T12:31:50.090Z,0.70
2023-05-01T12:34:17.810Z,0.37
2023-05-01T12:36:53.937Z,0.37
2023-05-01T12:39:22.168Z,0.50
2023-05-01T12:41:50.609Z,0.47
2023-05-01T12:44:25.655Z,0.60
2023-05-01T12:47:03.875Z,0.40
2023-05-01T12:49:32.540Z,0.40
2023-05-01T12:52:01.335Z,0.30
2023-05-01T12:54:32.729Z,0.40
2023-05-01T12:57:09.324Z,0.40
2023-05-01T12:59:38.849Z,0.47
2023-05-01T13:02:15.287Z,0.43
2023-05-01T13:04:43.878Z,0.40
2023-05-01T13:07:15.960Z,0.40
2023-05-01T13:09:53.601Z,0.20
2023-05-01T13:12:21.324Z,1.07
2023-05-01T13:14:49.087Z,0.30
2023-05-01T13:17:24.491Z,0.10
2023-05-01T13:19:59.025Z,0.23
2023-05-01T13:22:37.367Z,0.10
2023-05-01T13:25:05.410Z,0.30
2023-05-01T13:27:33.020Z,0.20
2023-05-01T13:30:01.173Z,0.23
2023-05-01T13:32:28.835Z,0.20
2023-05-01T13:34:58.491Z,0.30
2023-05-01T13:37:26.282Z,0.20
2023-05-01T13:39:58.784Z,0.30
2023-05-01T13:42:26.197Z,0.20
2023-05-01T13:44:54.679Z,0.30
2023-05-01T13:47:26.077Z,0.30
2023-05-01T13:49:53.640Z,0.33
2023-05-01T13:52:21.955Z,0.30
2023-05-01T13:54:49.594Z,0.20
2023-05-01T13:57:17.423Z,0.27
2023-05-01T13:59:47.046Z,0.50
2023-05-01T14:02:20.903Z,0.50
2023-05-01T14:04:48.936Z,0.40
2023-05-01T14:07:19.127Z,0.73
2023-05-01T14:09:51.595Z,0.70
2023-05-01T14:12:20.155Z,0.80
2023-05-01T14:14:49.374Z,0.97
2023-05-01T14:17:17.184Z,0.90
2023-05-01T14:19:44.673Z,0.70
2023-05-01T14:22:12.037Z,0.50
2023-05-01T14:24:41.539Z,0.53
2023-05-01T14:27:12.560Z,0.47
2023-05-01T14:29:43.838Z,0.40
2023-05-01T14:32:11.804Z,0.50
2023-05-01T14:34:42.599Z,0.90
2023-05-01T14:37:10.236Z,0.60
2023-05-01T14:39:37.996Z,0.40
2023-05-01T14:42:05.760Z,0.50
2023-05-01T14:44:33.158Z,0.30
2023-05-01T14:47:01.948Z,0.40
2023-05-01T14:49:29.847Z,0.33
2023-05-01T14:51:57.330Z,0.67
2023-05-01T14:54:24.686Z,2.20
2023-05-01T14:56:52.126Z,0.50
2023-05-01T14:59:19.527Z,0.37
2023-05-01T15:01:46.948Z,0.57
2023-05-01T15:04:14.737Z,0.43
2023-05-01T15:06:42.646Z,0.20
2023-05-01T15:09:10.115Z,0.80
2023-05-01T15:11:37.548Z,0.27
2023-05-01T15:14:06.089Z,0.30
2023-05-01T15:16:33.461Z,0.40
2023-05-01T15:19:01.207Z,0.30
2023-05-01T15:21:28.613Z,0.37
2023-05-01T15:23:56.125Z,0.50
2023-05-01T15:26:23.536Z,0.20
2023-05-01T15:28:51.337Z,0.20
2023-05-01T15:31:19.431Z,0.30
2023-05-01T15:33:46.979Z,0.70
2023-05-01T15:36:14.374Z,0.50
2023-05-01T15:38:41.816Z,0.37
2023-05-01T15:41:09.255Z,0.30
2023-05-01T15:43:36.635Z,0.40
2023-05-01T15:46:06.044Z,0.37
2023-05-01T15:48:33.900Z,0.40
2023-05-01T15:51:01.261Z,0.30
2023-05-01T15:53:28.694Z,0.30
2023-05-01T15:55:59.256Z,0.40
2023-05-01T15:58:26.708Z,0.70
2023-05-01T16:00:54.182Z,0.40
2023-05-01T16:03:21.906Z,0.30
2023-05-01T16:05:49.517Z,0.53
2023-05-01T16:08:19.221Z,0.40
2023-05-01T16:10:46.728Z,0.60
2023-05-01T16:13:14.375Z,0.40
2023-05-01T16:15:41.811Z,0.50
2023-05-01T16:18:09.289Z,0.30
2023-05-01T16:20:42.453Z,0.40
2023-05-01T16:23:09.890Z,0.57
2023-05-01T16:25:37.462Z,1.10
2023-05-01T16:28:06.723Z,1.50
2023-05-01T16:30:34.084Z,0.80
2023-05-01T16:33:04.244Z,0.50
2023-05-01T16:35:31.939Z,0.70
2023-05-01T16:38:00.286Z,0.60
2023-05-01T16:40:27.851Z,1.20
2023-05-01T16:42:56.287Z,0.80
2023-05-01T16:45:23.843Z,0.60
2023-05-01T16:47:51.609Z,0.80
2023-05-01T16:50:20.278Z,0.60
2023-05-01T16:52:47.653Z,0.50
2023-05-01T16:55:15.484Z,0.60
2023-05-01T16:57:44.235Z,0.80
2023-05-01T17:00:12.043Z,0.80
2023-05-01T17:02:39.724Z,0.70
2023-05-01T17:05:07.685Z,0.70
2023-05-01T17:07:35.164Z,0.80
2023-05-01T17:10:03.619Z,0.50
2023-05-01T17:12:31.573Z,0.10
2023-05-01T17:14:59.004Z,0.10
2023-05-01T17:17:26.383Z,0.20
2023-05-01T17:19:53.764Z,0.17
2023-05-01T17:22:21.204Z,0.20
2023-05-01T17:24:48.766Z,0.30
2023-05-01T17:27:16.164Z,0.40
2023-05-01T17:29:43.932Z,0.40
2023-05-01T17:32:12.309Z,0.30
2023-05-01T17:34:40.572Z,0.20
2023-05-01T17:37:08.564Z,0.30
2023-05-01T17:39:36.006Z,0.50
2023-05-01T17:42:04.540Z,0.70
2023-05-01T17:44:33.188Z,0.80
2023-05-01T17:47:01.124Z,0.70
2023-05-01T17:49:28.623Z,1.53
2023-05-01T17:51:56.004Z,0.93
2023-05-01T17:54:23.371Z,0.70
2023-05-01T17:56:50.692Z,0.40
2023-05-01T17:59:18.016Z,0.40
2023-05-01T18:01:45.660Z,0.87
2023-05-01T18:04:13.246Z,0.20
2023-05-01T18:06:41.182Z,0.20
2023-05-01T18:09:09.171Z,0.10
2023-05-01T18:11:36.646Z,0.40
2023-05-01T18:14:04.602Z,0.60
2023-05-01T18:16:31.916Z,0.30
2023-05-01T18:18:59.365Z,0.60
2023-05-01T18:21:27.719Z,0.30
2023-05-01T18:23:55.047Z,0.80
2023-05-01T18:26:22.649Z,0.40
2023-05-01T18:28:50.645Z,0.20
2023-05-01T18:31:18.178Z,0.10
2023-05-01T18:33:45.654Z,0.10
2023-05-01T18:36:12.965Z,0.30
2023-05-01T18:38:40.287Z,0.30
2023-05-01T18:41:07.730Z,0.37
2023-05-01T18:43:35.604Z,0.23
2023-05-01T18:46:03.049Z,0.20
2023-05-01T18:48:31.163Z,0.17
2023-05-01T18:51:08.361Z,0.27
2023-05-01T18:53:37.548Z,1.30
2023-05-01T18:56:06.286Z,0.20
2023-05-01T18:58:33.605Z,0.20
2023-05-01T19:01:01.057Z,0.10
2023-05-01T19:03:28.488Z,0.20
2023-05-01T19:05:55.973Z,0.40
2023-05-01T19:08:23.340Z,0.60
2023-05-01T19:10:50.682Z,0.70
2023-05-01T19:13:25.297Z,0.20
2023-05-01T19:15:53.613Z,0.10
2023-05-01T19:18:21.360Z,0.20
2023-05-01T19:20:48.653Z,0.20
2023-05-01T19:23:16.201Z,0.40
2023-05-01T19:25:43.646Z,0.30
2023-05-01T19:28:11.074Z,0.40
2023-05-01T19:30:38.625Z,0.30
2023-05-01T19:33:06.073Z,0.43
2023-05-01T19:35:34.361Z,0.40
2023-05-01T19:38:01.725Z,0.60
2023-05-01T19:40:29.102Z,0.63
2023-05-01T19:42:56.400Z,1.13
2023-05-01T19:45:26.883Z,0.70
2023-05-01T19:47:54.299Z,0.60
2023-05-01T19:50:21.892Z,0.40
2023-05-01T19:52:49.168Z,0.23
2023-05-01T19:55:17.403Z,0.20
2023-05-01T19:57:44.812Z,0.20
2023-05-01T20:00:12.414Z,0.20
2023-05-01T20:02:40.604Z,0.20
2023-05-01T20:05:08.203Z,0.20
2023-05-01T20:07:35.767Z,0.63
2023-05-01T20:10:03.216Z,0.60
2023-05-01T20:12:32.412Z,0.70
2023-05-01T20:15:01.528Z,0.60
2023-05-01T20:17:29.107Z,0.70
2023-05-01T20:19:56.715Z,0.87
2023-05-01T20:22:24.152Z,1.33
2023-05-01T20:24:51.488Z,1.00
2023-05-01T20:27:18.850Z,0.93
2023-05-01T20:29:46.284Z,1.10
2023-05-01T20:32:13.728Z,0.90
2023-05-01T20:34:41.450Z,0.60
2023-05-01T20:37:08.771Z,0.57
2023-05-01T20:39:36.328Z,0.50
2023-05-01T20:42:05.283Z,0.60
2023-05-01T20:44:33.002Z,0.60
2023-05-01T20:47:00.320Z,0.70
2023-05-01T20:49:28.851Z,0.60
2023-05-01T20:51:59.364Z,0.60
2023-05-01T20:54:26.763Z,0.50
2023-05-01T20:56:54.082Z,0.33
2023-05-01T20:59:21.607Z,0.23
2023-05-01T21:01:49.765Z,0.20
2023-05-01T21:04:17.587Z,0.20
2023-05-01T21:06:45.243Z,0.50
2023-05-01T21:09:15.124Z,0.40
2023-05-01T21:11:42.524Z,0.50
2023-05-01T21:14:09.970Z,0.50
2023-05-01T21:16:37.438Z,0.50
2023-05-01T21:19:04.845Z,0.70
2023-05-01T21:21:35.241Z,0.97
2023-05-01T21:24:02.650Z,0.90
2023-05-01T21:26:30.562Z,0.77
2023-05-01T21:28:58.894Z,0.60
2023-05-01T21:31:36.178Z,0.40
2023-05-01T21:34:03.645Z,0.40
2023-05-01T21:36:33.963Z,0.50
2023-05-01T21:39:01.645Z,0.30
2023-05-01T21:41:29.006Z,0.50
2023-05-01T21:43:56.375Z,0.30
2023-05-01T21:46:23.791Z,0.40
2023-05-01T21:48:52.004Z,0.40
2023-05-01T21:51:19.400Z,0.40
2023-05-01T21:53:46.924Z,0.30
2023-05-01T21:56:15.538Z,0.30
2023-05-01T21:58:42.924Z,0.40
2023-05-01T22:01:13.002Z,0.50
2023-05-01T22:03:41.910Z,0.40
2023-05-01T22:06:09.652Z,0.53
2023-05-01T22:08:37.287Z,0.40
2023-05-01T22:11:05.925Z,0.40
2023-05-01T22:13:34.488Z,0.50
2023-05-01T22:16:02.430Z,0.50
2023-05-01T22:18:30.125Z,0.23
2023-05-01T22:20:57.473Z,0.20
2023-05-01T22:23:24.884Z,0.30
2023-05-01T22:25:59.486Z,0.20
2023-05-01T22:28:27.284Z,0.10
2023-05-01T22:30:54.687Z,0.20
2023-05-01T22:33:22.263Z,0.30
2023-05-01T22:35:49.610Z,0.40
2023-05-01T22:38:16.979Z,0.40
2023-05-01T22:40:44.338Z,0.40
2023-05-01T22:43:11.806Z,0.47
2023-05-01T22:45:39.740Z,0.20
2023-05-01T22:48:07.463Z,0.33
2023-05-01T22:50:34.887Z,0.30
2023-05-01T22:53:02.289Z,0.30
2023-05-01T22:55:29.816Z,0.30
2023-05-01T22:57:57.253Z,0.30
2023-05-01T23:00:24.576Z,0.37
2023-05-01T23:02:51.983Z,0.47
2023-05-01T23:05:19.648Z,0.50
2023-05-01T23:07:47.105Z,0.50
2023-05-01T23:10:15.672Z,0.47
2023-05-01T23:12:46.001Z,0.50
2023-05-01T23:15:16.999Z,0.50
2023-05-01T23:17:44.761Z,0.30
2023-05-01T23:20:18.605Z,0.40
2023-05-01T23:22:47.484Z,0.40
2023-05-01T23:25:14.807Z,0.53
2023-05-01T23:27:43.202Z,0.67
2023-05-01T23:30:10.888Z,0.37
2023-05-01T23:32:39.948Z,0.40
2023-05-01T23:35:18.527Z,0.40
2023-05-01T23:37:45.998Z,0.60
2023-05-01T23:40:13.456Z,0.53
2023-05-01T23:42:41.130Z,0.60
2023-05-01T23:45:09.760Z,0.50
2023-05-01T23:47:37.828Z,0.43
2023-05-01T23:50:06.115Z,0.47
2023-05-01T23:52:33.499Z,0.43
2023-05-01T23:55:00.764Z,0.43
2023-05-01T23:57:31.231Z,0.40
2023-05-01T23:59:58.833Z,0.20
